sensor_id;sensor_type;location;lat;lon;timestamp;temperature;humidity
13093;DHT22;6612;49.568;11.000;2022-11-20T00:02:18;6.00;71.90
13093;DHT22;6612;49.568;11.000;2022-11-20T00:04:45;6.00;72.60
13093;DHT22;6612;49.568;11.000;2022-11-20T00:07:12;6.00;71.80
13093;DHT22;6612;49.568;11.000;2022-11-20T00:09:39;6.00;71.80
13093;DHT22;6612;49.568;11.000;2022-11-20T00:12:06;6.10;71.90
13093;DHT22;6612;49.568;11.000;2022-11-20T00:14:34;6.10;71.70
13093;DHT22;6612;49.568;11.000;2022-11-20T00:17:01;6.10;71.50
13093;DHT22;6612;49.568;11.000;2022-11-20T00:19:28;6.10;71.50
13093;DHT22;6612;49.568;11.000;2022-11-20T00:21:55;6.20;71.80
13093;DHT22;6612;49.568;11.000;2022-11-20T00:24:22;6.10;71.60
13093;DHT22;6612;49.568;11.000;2022-11-20T00:26:49;6.20;71.60
13093;DHT22;6612;49.568;11.000;2022-11-20T00:29:15;6.20;71.40
13093;DHT22;6612;49.568;11.000;2022-11-20T00:31:44;6.20;71.00
13093;DHT22;6612;49.568;11.000;2022-11-20T00:34:11;6.20;70.40
13093;DHT22;6612;49.568;11.000;2022-11-20T00:36:38;6.10;70.10
13093;DHT22;6612;49.568;11.000;2022-11-20T00:39:05;6.10;69.90
13093;DHT22;6612;49.568;11.000;2022-11-20T00:41:31;6.10;70.00
13093;DHT22;6612;49.568;11.000;2022-11-20T00:43:58;6.10;70.20
13093;DHT22;6612;49.568;11.000;2022-11-20T00:46:27;6.10;70.50
13093;DHT22;6612;49.568;11.000;2022-11-20T00:48:55;6.10;70.60
13093;DHT22;6612;49.568;11.000;2022-11-20T00:51:23;6.10;70.50
13093;DHT22;6612;49.568;11.000;2022-11-20T00:53:51;6.00;70.60
13093;DHT22;6612;49.568;11.000;2022-11-20T00:56:19;6.10;71.00
13093;DHT22;6612;49.568;11.000;2022-11-20T00:58:47;6.10;72.00
13093;DHT22;6612;49.568;11.000;2022-11-20T01:01:16;6.10;71.40
13093;DHT22;6612;49.568;11.000;2022-11-20T01:03:44;6.10;71.30
13093;DHT22;6612;49.568;11.000;2022-11-20T01:06:18;6.10;71.20
13093;DHT22;6612;49.568;11.000;2022-11-20T01:08:46;6.10;71.20
13093;DHT22;6612;49.568;11.000;2022-11-20T01:11:15;6.20;71.50
13093;DHT22;6612;49.568;11.000;2022-11-20T01:13:43;6.20;71.30
13093;DHT22;6612;49.568;11.000;2022-11-20T01:16:11;6.20;71.40
13093;DHT22;6612;49.568;11.000;2022-11-20T01:18:41;6.20;71.40
13093;DHT22;6612;49.568;11.000;2022-11-20T01:21:09;6.20;71.50
13093;DHT22;6612;49.568;11.000;2022-11-20T01:23:39;6.30;71.50
13093;DHT22;6612;49.568;11.000;2022-11-20T01:26:08;6.30;71.10
13093;DHT22;6612;49.568;11.000;2022-11-20T01:28:35;6.20;70.90
13093;DHT22;6612;49.568;11.000;2022-11-20T01:31:11;6.20;70.80
13093;DHT22;6612;49.568;11.000;2022-11-20T01:33:39;6.30;70.50
13093;DHT22;6612;49.568;11.000;2022-11-20T01:36:07;6.20;70.80
13093;DHT22;6612;49.568;11.000;2022-11-20T01:38:35;6.20;71.00
13093;DHT22;6612;49.568;11.000;2022-11-20T01:41:04;6.20;71.30
13093;DHT22;6612;49.568;11.000;2022-11-20T01:43:31;6.30;71.50
13093;DHT22;6612;49.568;11.000;2022-11-20T01:46:06;6.30;71.70
13093;DHT22;6612;49.568;11.000;2022-11-20T01:48:37;6.30;71.30
13093;DHT22;6612;49.568;11.000;2022-11-20T01:51:10;6.30;70.80
13093;DHT22;6612;49.568;11.000;2022-11-20T01:53:39;6.30;70.50
13093;DHT22;6612;49.568;11.000;2022-11-20T01:56:10;6.30;70.50
13093;DHT22;6612;49.568;11.000;2022-11-20T01:58:44;6.30;70.30
13093;DHT22;6612;49.568;11.000;2022-11-20T02:01:13;6.30;70.50
13093;DHT22;6612;49.568;11.000;2022-11-20T02:03:40;6.30;70.90
13093;DHT22;6612;49.568;11.000;2022-11-20T02:06:11;6.30;71.10
13093;DHT22;6612;49.568;11.000;2022-11-20T02:08:40;6.30;70.90
13093;DHT22;6612;49.568;11.000;2022-11-20T02:11:08;6.20;70.90
13093;DHT22;6612;49.568;11.000;2022-11-20T02:13:35;6.20;70.90
13093;DHT22;6612;49.568;11.000;2022-11-20T02:16:14;6.30;70.80
13093;DHT22;6612;49.568;11.000;2022-11-20T02:18:42;6.30;70.50
13093;DHT22;6612;49.568;11.000;2022-11-20T02:21:17;6.20;70.60
13093;DHT22;6612;49.568;11.000;2022-11-20T02:24:12;6.20;70.50
13093;DHT22;6612;49.568;11.000;2022-11-20T02:26:45;6.20;70.30
13093;DHT22;6612;49.568;11.000;2022-11-20T02:29:16;6.20;70.60
13093;DHT22;6612;49.568;11.000;2022-11-20T02:31:45;6.20;70.60
13093;DHT22;6612;49.568;11.000;2022-11-20T02:34:12;6.20;70.50
13093;DHT22;6612;49.568;11.000;2022-11-20T02:36:39;6.20;70.60
13093;DHT22;6612;49.568;11.000;2022-11-20T02:39:09;6.20;70.40
13093;DHT22;6612;49.568;11.000;2022-11-20T02:41:38;6.20;69.90
13093;DHT22;6612;49.568;11.000;2022-11-20T02:44:05;6.20;69.80
13093;DHT22;6612;49.568;11.000;2022-11-20T02:46:32;6.10;69.60
13093;DHT22;6612;49.568;11.000;2022-11-20T02:49:01;6.10;70.00
13093;DHT22;6612;49.568;11.000;2022-11-20T02:51:29;6.10;70.10
13093;DHT22;6612;49.568;11.000;2022-11-20T02:53:56;6.10;70.30
13093;DHT22;6612;49.568;11.000;2022-11-20T02:56:24;6.10;70.50
13093;DHT22;6612;49.568;11.000;2022-11-20T02:58:52;6.10;70.40
13093;DHT22;6612;49.568;11.000;2022-11-20T03:01:19;6.10;70.50
13093;DHT22;6612;49.568;11.000;2022-11-20T03:03:46;6.10;70.50
13093;DHT22;6612;49.568;11.000;2022-11-20T03:06:14;6.10;70.50
13093;DHT22;6612;49.568;11.000;2022-11-20T03:08:41;6.10;70.50
13093;DHT22;6612;49.568;11.000;2022-11-20T03:11:08;6.10;70.40
13093;DHT22;6612;49.568;11.000;2022-11-20T03:13:37;6.10;70.40
13093;DHT22;6612;49.568;11.000;2022-11-20T03:16:09;6.20;70.60
13093;DHT22;6612;49.568;11.000;2022-11-20T03:18:37;6.10;70.50
13093;DHT22;6612;49.568;11.000;2022-11-20T03:21:04;6.10;70.80
13093;DHT22;6612;49.568;11.000;2022-11-20T03:23:32;6.10;70.90
13093;DHT22;6612;49.568;11.000;2022-11-20T03:26:10;6.10;70.90
13093;DHT22;6612;49.568;11.000;2022-11-20T03:28:39;6.10;70.60
13093;DHT22;6612;49.568;11.000;2022-11-20T03:31:10;6.10;70.70
13093;DHT22;6612;49.568;11.000;2022-11-20T03:33:38;6.10;70.80
13093;DHT22;6612;49.568;11.000;2022-11-20T03:36:07;6.10;70.60
13093;DHT22;6612;49.568;11.000;2022-11-20T03:38:35;6.10;70.40
13093;DHT22;6612;49.568;11.000;2022-11-20T03:41:04;6.10;70.30
13093;DHT22;6612;49.568;11.000;2022-11-20T03:43:32;6.00;70.10
13093;DHT22;6612;49.568;11.000;2022-11-20T03:46:00;6.00;70.10
13093;DHT22;6612;49.568;11.000;2022-11-20T03:48:28;6.00;69.80
13093;DHT22;6612;49.568;11.000;2022-11-20T03:51:07;6.00;69.70
13093;DHT22;6612;49.568;11.000;2022-11-20T03:53:34;6.00;69.50
13093;DHT22;6612;49.568;11.000;2022-11-20T03:56:01;6.00;69.80
13093;DHT22;6612;49.568;11.000;2022-11-20T03:58:28;5.90;69.40
13093;DHT22;6612;49.568;11.000;2022-11-20T04:00:55;5.80;69.10
13093;DHT22;6612;49.568;11.000;2022-11-20T04:03:24;5.80;69.20
13093;DHT22;6612;49.568;11.000;2022-11-20T04:05:51;5.80;69.30
13093;DHT22;6612;49.568;11.000;2022-11-20T04:08:18;5.80;69.60
13093;DHT22;6612;49.568;11.000;2022-11-20T04:10:45;5.70;69.70
13093;DHT22;6612;49.568;11.000;2022-11-20T04:13:12;5.70;69.90
13093;DHT22;6612;49.568;11.000;2022-11-20T04:15:39;5.70;70.10
13093;DHT22;6612;49.568;11.000;2022-11-20T04:18:06;5.70;70.10
13093;DHT22;6612;49.568;11.000;2022-11-20T04:20:35;5.70;70.30
13093;DHT22;6612;49.568;11.000;2022-11-20T04:23:02;5.70;70.40
13093;DHT22;6612;49.568;11.000;2022-11-20T04:25:29;5.70;70.60
13093;DHT22;6612;49.568;11.000;2022-11-20T04:27:55;5.80;70.80
13093;DHT22;6612;49.568;11.000;2022-11-20T04:30:22;5.70;71.00
13093;DHT22;6612;49.568;11.000;2022-11-20T04:32:49;5.70;71.20
13093;DHT22;6612;49.568;11.000;2022-11-20T04:35:16;5.80;71.60
13093;DHT22;6612;49.568;11.000;2022-11-20T04:37:44;5.80;71.60
13093;DHT22;6612;49.568;11.000;2022-11-20T04:40:12;5.80;71.60
13093;DHT22;6612;49.568;11.000;2022-11-20T04:42:39;5.80;71.70
13093;DHT22;6612;49.568;11.000;2022-11-20T04:45:06;5.80;71.70
13093;DHT22;6612;49.568;11.000;2022-11-20T04:47:33;5.80;71.50
13093;DHT22;6612;49.568;11.000;2022-11-20T04:50:00;5.80;71.60
13093;DHT22;6612;49.568;11.000;2022-11-20T04:52:27;5.90;71.80
13093;DHT22;6612;49.568;11.000;2022-11-20T04:54:55;5.90;71.90
13093;DHT22;6612;49.568;11.000;2022-11-20T04:57:22;5.90;71.80
13093;DHT22;6612;49.568;11.000;2022-11-20T04:59:49;6.00;71.90
13093;DHT22;6612;49.568;11.000;2022-11-20T05:02:16;6.00;71.80
13093;DHT22;6612;49.568;11.000;2022-11-20T05:04:43;6.00;71.70
13093;DHT22;6612;49.568;11.000;2022-11-20T05:07:10;6.00;71.70
13093;DHT22;6612;49.568;11.000;2022-11-20T05:09:37;6.00;71.80
13093;DHT22;6612;49.568;11.000;2022-11-20T05:12:07;5.90;71.80
13093;DHT22;6612;49.568;11.000;2022-11-20T05:14:34;6.00;72.00
13093;DHT22;6612;49.568;11.000;2022-11-20T05:17:01;6.00;72.30
13093;DHT22;6612;49.568;11.000;2022-11-20T05:21:53;6.10;72.50
13093;DHT22;6612;49.568;11.000;2022-11-20T05:24:20;6.10;72.50
13093;DHT22;6612;49.568;11.000;2022-11-20T05:26:47;6.10;72.20
13093;DHT22;6612;49.568;11.000;2022-11-20T05:29:15;6.10;72.10
13093;DHT22;6612;49.568;11.000;2022-11-20T05:31:42;6.10;71.70
13093;DHT22;6612;49.568;11.000;2022-11-20T05:34:09;6.10;71.40
13093;DHT22;6612;49.568;11.000;2022-11-20T05:36:36;6.10;71.30
13093;DHT22;6612;49.568;11.000;2022-11-20T05:39:03;6.10;71.40
13093;DHT22;6612;49.568;11.000;2022-11-20T05:41:30;6.10;71.60
13093;DHT22;6612;49.568;11.000;2022-11-20T05:43:57;6.10;71.80
13093;DHT22;6612;49.568;11.000;2022-11-20T05:46:26;6.10;71.90
13093;DHT22;6612;49.568;11.000;2022-11-20T05:48:53;6.10;71.90
13093;DHT22;6612;49.568;11.000;2022-11-20T05:51:20;6.10;72.00
13093;DHT22;6612;49.568;11.000;2022-11-20T05:53:47;6.10;71.90
13093;DHT22;6612;49.568;11.000;2022-11-20T05:56:15;6.10;71.90
13093;DHT22;6612;49.568;11.000;2022-11-20T05:58:42;6.20;71.90
13093;DHT22;6612;49.568;11.000;2022-11-20T06:01:11;6.20;72.10
13093;DHT22;6612;49.568;11.000;2022-11-20T06:03:41;6.20;72.10
13093;DHT22;6612;49.568;11.000;2022-11-20T06:06:11;6.20;71.90
13093;DHT22;6612;49.568;11.000;2022-11-20T06:08:38;6.20;72.00
13093;DHT22;6612;49.568;11.000;2022-11-20T06:11:06;6.20;72.00
13093;DHT22;6612;49.568;11.000;2022-11-20T06:13:33;6.20;71.80
13093;DHT22;6612;49.568;11.000;2022-11-20T06:16:01;6.20;71.60
13093;DHT22;6612;49.568;11.000;2022-11-20T06:18:29;6.20;71.70
13093;DHT22;6612;49.568;11.000;2022-11-20T06:21:02;6.20;71.90
13093;DHT22;6612;49.568;11.000;2022-11-20T06:23:29;6.20;71.90
13093;DHT22;6612;49.568;11.000;2022-11-20T06:25:58;6.20;72.10
13093;DHT22;6612;49.568;11.000;2022-11-20T06:28:24;6.20;72.20
13093;DHT22;6612;49.568;11.000;2022-11-20T06:30:52;6.20;72.20
13093;DHT22;6612;49.568;11.000;2022-11-20T06:33:19;6.20;71.90
13093;DHT22;6612;49.568;11.000;2022-11-20T06:35:46;6.20;71.90
13093;DHT22;6612;49.568;11.000;2022-11-20T06:38:14;6.20;71.80
13093;DHT22;6612;49.568;11.000;2022-11-20T06:40:41;6.30;71.80
13093;DHT22;6612;49.568;11.000;2022-11-20T06:43:08;6.20;71.50
13093;DHT22;6612;49.568;11.000;2022-11-20T06:45:35;6.20;71.30
13093;DHT22;6612;49.568;11.000;2022-11-20T06:48:03;6.20;71.40
13093;DHT22;6612;49.568;11.000;2022-11-20T06:50:30;6.20;71.40
13093;DHT22;6612;49.568;11.000;2022-11-20T06:53:00;6.20;71.50
13093;DHT22;6612;49.568;11.000;2022-11-20T06:55:29;6.20;71.50
13093;DHT22;6612;49.568;11.000;2022-11-20T06:57:56;6.20;71.70
13093;DHT22;6612;49.568;11.000;2022-11-20T07:00:23;6.20;72.50
13093;DHT22;6612;49.568;11.000;2022-11-20T07:02:50;6.20;71.80
13093;DHT22;6612;49.568;11.000;2022-11-20T07:05:17;6.20;72.00
13093;DHT22;6612;49.568;11.000;2022-11-20T07:07:44;6.20;72.10
13093;DHT22;6612;49.568;11.000;2022-11-20T07:10:11;6.20;72.20
13093;DHT22;6612;49.568;11.000;2022-11-20T07:12:40;6.20;72.20
13093;DHT22;6612;49.568;11.000;2022-11-20T07:15:07;6.30;72.50
13093;DHT22;6612;49.568;11.000;2022-11-20T07:17:34;6.30;72.70
13093;DHT22;6612;49.568;11.000;2022-11-20T07:20:01;6.30;72.80
13093;DHT22;6612;49.568;11.000;2022-11-20T07:22:28;6.40;73.00
13093;DHT22;6612;49.568;11.000;2022-11-20T07:24:55;6.40;72.90
13093;DHT22;6612;49.568;11.000;2022-11-20T07:27:21;6.40;73.00
13093;DHT22;6612;49.568;11.000;2022-11-20T07:29:50;6.40;73.10
13093;DHT22;6612;49.568;11.000;2022-11-20T07:32:17;6.40;73.20
13093;DHT22;6612;49.568;11.000;2022-11-20T07:34:44;6.50;73.40
13093;DHT22;6612;49.568;11.000;2022-11-20T07:37:11;6.50;73.30
13093;DHT22;6612;49.568;11.000;2022-11-20T07:39:38;6.50;73.20
13093;DHT22;6612;49.568;11.000;2022-11-20T07:42:06;6.50;73.10
13093;DHT22;6612;49.568;11.000;2022-11-20T07:44:33;6.60;73.10
13093;DHT22;6612;49.568;11.000;2022-11-20T07:47:01;6.60;73.30
13093;DHT22;6612;49.568;11.000;2022-11-20T07:49:28;6.60;73.30
13093;DHT22;6612;49.568;11.000;2022-11-20T07:51:55;6.70;73.60
13093;DHT22;6612;49.568;11.000;2022-11-20T07:54:22;6.70;73.60
13093;DHT22;6612;49.568;11.000;2022-11-20T07:56:49;6.70;73.60
13093;DHT22;6612;49.568;11.000;2022-11-20T07:59:16;6.70;73.50
13093;DHT22;6612;49.568;11.000;2022-11-20T08:01:43;6.80;73.50
13093;DHT22;6612;49.568;11.000;2022-11-20T08:04:12;6.80;73.50
13093;DHT22;6612;49.568;11.000;2022-11-20T08:06:40;6.80;73.40
13093;DHT22;6612;49.568;11.000;2022-11-20T08:09:07;6.80;73.50
13093;DHT22;6612;49.568;11.000;2022-11-20T08:11:35;6.90;73.50
13093;DHT22;6612;49.568;11.000;2022-11-20T08:14:19;6.90;73.00
13093;DHT22;6612;49.568;11.000;2022-11-20T08:16:47;6.90;72.90
13093;DHT22;6612;49.568;11.000;2022-11-20T08:19:17;6.90;73.00
13093;DHT22;6612;49.568;11.000;2022-11-20T08:21:45;6.90;73.10
13093;DHT22;6612;49.568;11.000;2022-11-20T08:24:12;6.90;73.40
13093;DHT22;6612;49.568;11.000;2022-11-20T08:26:39;6.90;73.40
13093;DHT22;6612;49.568;11.000;2022-11-20T08:29:07;6.90;73.60
13093;DHT22;6612;49.568;11.000;2022-11-20T08:31:34;6.90;74.70
13093;DHT22;6612;49.568;11.000;2022-11-20T08:34:01;7.00;74.20
13093;DHT22;6612;49.568;11.000;2022-11-20T08:36:32;7.00;74.30
13093;DHT22;6612;49.568;11.000;2022-11-20T08:38:59;7.00;74.00
13093;DHT22;6612;49.568;11.000;2022-11-20T08:41:26;7.00;74.20
13093;DHT22;6612;49.568;11.000;2022-11-20T08:43:55;7.10;74.20
13093;DHT22;6612;49.568;11.000;2022-11-20T08:46:23;7.00;73.60
13093;DHT22;6612;49.568;11.000;2022-11-20T08:48:51;7.10;73.60
13093;DHT22;6612;49.568;11.000;2022-11-20T08:51:18;7.00;73.80
13093;DHT22;6612;49.568;11.000;2022-11-20T08:53:47;7.10;74.10
13093;DHT22;6612;49.568;11.000;2022-11-20T08:56:15;7.10;73.90
13093;DHT22;6612;49.568;11.000;2022-11-20T08:58:42;7.10;74.10
13093;DHT22;6612;49.568;11.000;2022-11-20T09:01:09;7.10;74.00
13093;DHT22;6612;49.568;11.000;2022-11-20T09:03:36;7.10;74.80
13093;DHT22;6612;49.568;11.000;2022-11-20T09:06:05;7.10;74.20
13093;DHT22;6612;49.568;11.000;2022-11-20T09:08:33;7.10;74.40
13093;DHT22;6612;49.568;11.000;2022-11-20T09:11:02;7.10;74.60
13093;DHT22;6612;49.568;11.000;2022-11-20T09:13:30;7.10;74.60
13093;DHT22;6612;49.568;11.000;2022-11-20T09:15:59;7.20;74.50
13093;DHT22;6612;49.568;11.000;2022-11-20T09:18:27;7.30;74.60
13093;DHT22;6612;49.568;11.000;2022-11-20T09:20:56;7.20;74.70
13093;DHT22;6612;49.568;11.000;2022-11-20T09:23:23;7.20;74.60
13093;DHT22;6612;49.568;11.000;2022-11-20T09:25:50;7.20;74.60
13093;DHT22;6612;49.568;11.000;2022-11-20T09:28:19;7.30;74.50
13093;DHT22;6612;49.568;11.000;2022-11-20T09:30:46;7.20;73.90
13093;DHT22;6612;49.568;11.000;2022-11-20T09:33:14;7.20;73.80
13093;DHT22;6612;49.568;11.000;2022-11-20T09:35:41;7.20;73.80
13093;DHT22;6612;49.568;11.000;2022-11-20T09:38:09;7.20;73.60
13093;DHT22;6612;49.568;11.000;2022-11-20T09:40:39;7.20;73.40
13093;DHT22;6612;49.568;11.000;2022-11-20T09:43:12;7.30;73.00
13093;DHT22;6612;49.568;11.000;2022-11-20T09:45:54;7.20;72.70
13093;DHT22;6612;49.568;11.000;2022-11-20T09:48:38;7.10;72.60
13093;DHT22;6612;49.568;11.000;2022-11-20T09:51:16;7.10;73.00
13093;DHT22;6612;49.568;11.000;2022-11-20T09:53:57;7.10;73.10
13093;DHT22;6612;49.568;11.000;2022-11-20T09:56:25;7.10;73.30
13093;DHT22;6612;49.568;11.000;2022-11-20T09:58:55;7.10;73.90
13093;DHT22;6612;49.568;11.000;2022-11-20T10:01:29;7.10;74.10
13093;DHT22;6612;49.568;11.000;2022-11-20T10:03:59;7.10;74.20
13093;DHT22;6612;49.568;11.000;2022-11-20T10:06:30;7.10;74.30
13093;DHT22;6612;49.568;11.000;2022-11-20T10:09:04;7.10;74.20
13093;DHT22;6612;49.568;11.000;2022-11-20T10:11:41;7.10;74.10
13093;DHT22;6612;49.568;11.000;2022-11-20T10:14:19;7.10;74.20
13093;DHT22;6612;49.568;11.000;2022-11-20T10:16:59;7.10;74.20
13093;DHT22;6612;49.568;11.000;2022-11-20T10:19:50;7.10;74.20
13093;DHT22;6612;49.568;11.000;2022-11-20T10:22:30;7.20;74.10
13093;DHT22;6612;49.568;11.000;2022-11-20T10:25:06;7.20;74.40
13093;DHT22;6612;49.568;11.000;2022-11-20T10:30:25;7.20;73.60
13093;DHT22;6612;49.568;11.000;2022-11-20T10:32:56;7.20;74.70
13093;DHT22;6612;49.568;11.000;2022-11-20T10:35:28;7.10;73.60
13093;DHT22;6612;49.568;11.000;2022-11-20T10:38:01;7.10;73.70
13093;DHT22;6612;49.568;11.000;2022-11-20T10:40:32;7.10;74.00
13093;DHT22;6612;49.568;11.000;2022-11-20T10:43:02;7.10;74.00
13093;DHT22;6612;49.568;11.000;2022-11-20T10:45:40;7.10;74.10
13093;DHT22;6612;49.568;11.000;2022-11-20T10:48:16;7.10;73.70
13093;DHT22;6612;49.568;11.000;2022-11-20T10:51:06;7.10;73.40
13093;DHT22;6612;49.568;11.000;2022-11-20T10:53:45;7.10;73.10
13093;DHT22;6612;49.568;11.000;2022-11-20T10:56:19;7.10;73.20
13093;DHT22;6612;49.568;11.000;2022-11-20T10:58:56;7.10;73.40
13093;DHT22;6612;49.568;11.000;2022-11-20T11:01:27;7.10;73.50
13093;DHT22;6612;49.568;11.000;2022-11-20T11:03:55;7.10;74.00
13093;DHT22;6612;49.568;11.000;2022-11-20T11:06:29;7.10;74.20
13093;DHT22;6612;49.568;11.000;2022-11-20T11:08:59;7.10;74.40
13093;DHT22;6612;49.568;11.000;2022-11-20T11:11:30;7.10;74.60
13093;DHT22;6612;49.568;11.000;2022-11-20T11:14:04;7.10;74.60
13093;DHT22;6612;49.568;11.000;2022-11-20T11:16:32;7.00;74.50
13093;DHT22;6612;49.568;11.000;2022-11-20T11:19:11;7.10;75.00
13093;DHT22;6612;49.568;11.000;2022-11-20T11:21:38;7.20;75.00
13093;DHT22;6612;49.568;11.000;2022-11-20T11:24:20;7.20;75.40
13093;DHT22;6612;49.568;11.000;2022-11-20T11:26:53;7.20;75.80
13093;DHT22;6612;49.568;11.000;2022-11-20T11:29:21;7.20;76.50
13093;DHT22;6612;49.568;11.000;2022-11-20T11:31:49;7.20;77.10
13093;DHT22;6612;49.568;11.000;2022-11-20T11:34:17;7.30;77.10
13093;DHT22;6612;49.568;11.000;2022-11-20T11:36:52;7.40;77.50
13093;DHT22;6612;49.568;11.000;2022-11-20T11:39:22;7.40;76.80
13093;DHT22;6612;49.568;11.000;2022-11-20T11:41:49;7.50;77.40
13093;DHT22;6612;49.568;11.000;2022-11-20T11:44:18;7.60;78.00
13093;DHT22;6612;49.568;11.000;2022-11-20T11:47:04;7.60;78.00
13093;DHT22;6612;49.568;11.000;2022-11-20T11:49:33;7.70;78.20
13093;DHT22;6612;49.568;11.000;2022-11-20T11:52:05;7.80;78.20
13093;DHT22;6612;49.568;11.000;2022-11-20T11:54:40;7.80;78.50
13093;DHT22;6612;49.568;11.000;2022-11-20T11:57:12;7.90;79.40
13093;DHT22;6612;49.568;11.000;2022-11-20T11:59:49;8.00;80.30
13093;DHT22;6612;49.568;11.000;2022-11-20T12:02:29;8.20;80.50
13093;DHT22;6612;49.568;11.000;2022-11-20T12:05:05;8.30;80.00
13093;DHT22;6612;49.568;11.000;2022-11-20T12:07:41;8.40;79.30
13093;DHT22;6612;49.568;11.000;2022-11-20T12:10:17;8.40;78.30
13093;DHT22;6612;49.568;11.000;2022-11-20T12:12:49;8.40;78.00
13093;DHT22;6612;49.568;11.000;2022-11-20T12:15:25;8.50;78.40
13093;DHT22;6612;49.568;11.000;2022-11-20T12:17:53;8.50;78.60
13093;DHT22;6612;49.568;11.000;2022-11-20T12:20:26;8.50;78.80
13093;DHT22;6612;49.568;11.000;2022-11-20T12:22:59;8.60;78.50
13093;DHT22;6612;49.568;11.000;2022-11-20T12:25:30;8.50;78.20
13093;DHT22;6612;49.568;11.000;2022-11-20T12:28:22;8.70;78.20
13093;DHT22;6612;49.568;11.000;2022-11-20T12:31:03;8.70;77.60
13093;DHT22;6612;49.568;11.000;2022-11-20T12:33:58;8.70;77.60
13093;DHT22;6612;49.568;11.000;2022-11-20T12:36:36;8.70;77.10
13093;DHT22;6612;49.568;11.000;2022-11-20T12:39:26;8.60;77.30
13093;DHT22;6612;49.568;11.000;2022-11-20T12:42:26;8.70;77.50
13093;DHT22;6612;49.568;11.000;2022-11-20T12:45:28;8.80;77.80
13093;DHT22;6612;49.568;11.000;2022-11-20T12:48:27;8.80;78.10
13093;DHT22;6612;49.568;11.000;2022-11-20T12:53:59;8.90;78.30
13093;DHT22;6612;49.568;11.000;2022-11-20T12:56:37;8.90;78.30
13093;DHT22;6612;49.568;11.000;2022-11-20T12:59:23;9.00;78.60
13093;DHT22;6612;49.568;11.000;2022-11-20T13:01:53;9.00;78.40
13093;DHT22;6612;49.568;11.000;2022-11-20T13:04:39;9.00;78.50
13093;DHT22;6612;49.568;11.000;2022-11-20T13:07:13;9.10;77.90
13093;DHT22;6612;49.568;11.000;2022-11-20T13:09:44;9.10;77.90
13093;DHT22;6612;49.568;11.000;2022-11-20T13:12:14;9.20;77.50
13093;DHT22;6612;49.568;11.000;2022-11-20T13:14:47;9.20;77.20
13093;DHT22;6612;49.568;11.000;2022-11-20T13:17:22;9.30;77.20
13093;DHT22;6612;49.568;11.000;2022-11-20T13:19:54;9.20;77.00
13093;DHT22;6612;49.568;11.000;2022-11-20T13:22:25;9.10;76.80
13093;DHT22;6612;49.568;11.000;2022-11-20T13:24:54;9.20;76.70
13093;DHT22;6612;49.568;11.000;2022-11-20T13:27:23;9.20;76.60
13093;DHT22;6612;49.568;11.000;2022-11-20T13:30:01;9.20;76.60
13093;DHT22;6612;49.568;11.000;2022-11-20T13:32:29;9.20;76.00
13093;DHT22;6612;49.568;11.000;2022-11-20T13:35:00;9.20;76.40
13093;DHT22;6612;49.568;11.000;2022-11-20T13:37:30;9.20;76.20
13093;DHT22;6612;49.568;11.000;2022-11-20T13:40:22;9.20;76.10
13093;DHT22;6612;49.568;11.000;2022-11-20T13:42:56;9.20;75.40
13093;DHT22;6612;49.568;11.000;2022-11-20T13:45:29;9.20;75.80
13093;DHT22;6612;49.568;11.000;2022-11-20T13:47:58;9.10;75.90
13093;DHT22;6612;49.568;11.000;2022-11-20T13:50:40;9.20;75.90
13093;DHT22;6612;49.568;11.000;2022-11-20T13:53:24;9.10;75.30
13093;DHT22;6612;49.568;11.000;2022-11-20T13:56:00;9.10;75.40
13093;DHT22;6612;49.568;11.000;2022-11-20T13:58:36;9.10;75.40
13093;DHT22;6612;49.568;11.000;2022-11-20T14:01:09;9.10;75.60
13093;DHT22;6612;49.568;11.000;2022-11-20T14:03:38;9.10;75.90
13093;DHT22;6612;49.568;11.000;2022-11-20T14:06:11;9.10;76.10
13093;DHT22;6612;49.568;11.000;2022-11-20T14:08:47;9.10;76.80
13093;DHT22;6612;49.568;11.000;2022-11-20T14:11:23;9.10;76.20
13093;DHT22;6612;49.568;11.000;2022-11-20T14:13:59;9.10;76.00
13093;DHT22;6612;49.568;11.000;2022-11-20T14:16:35;9.10;75.80
13093;DHT22;6612;49.568;11.000;2022-11-20T14:19:28;9.10;75.70
13093;DHT22;6612;49.568;11.000;2022-11-20T14:22:10;9.10;75.40
13093;DHT22;6612;49.568;11.000;2022-11-20T14:24:37;9.10;75.40
13093;DHT22;6612;49.568;11.000;2022-11-20T14:27:12;9.10;75.80
13093;DHT22;6612;49.568;11.000;2022-11-20T14:29:39;9.10;75.60
13093;DHT22;6612;49.568;11.000;2022-11-20T14:32:09;9.00;75.70
13093;DHT22;6612;49.568;11.000;2022-11-20T14:34:39;9.00;75.60
13093;DHT22;6612;49.568;11.000;2022-11-20T14:37:11;9.00;75.60
13093;DHT22;6612;49.568;11.000;2022-11-20T14:39:41;9.00;75.50
13093;DHT22;6612;49.568;11.000;2022-11-20T14:42:17;9.00;75.50
13093;DHT22;6612;49.568;11.000;2022-11-20T14:44:46;9.00;75.20
13093;DHT22;6612;49.568;11.000;2022-11-20T14:47:18;9.00;75.60
13093;DHT22;6612;49.568;11.000;2022-11-20T14:49:48;9.00;75.50
13093;DHT22;6612;49.568;11.000;2022-11-20T14:52:18;9.00;75.60
13093;DHT22;6612;49.568;11.000;2022-11-20T14:54:47;9.00;75.60
13093;DHT22;6612;49.568;11.000;2022-11-20T14:57:25;9.00;75.70
13093;DHT22;6612;49.568;11.000;2022-11-20T15:00:06;9.00;75.30
13093;DHT22;6612;49.568;11.000;2022-11-20T15:02:34;9.00;75.20
13093;DHT22;6612;49.568;11.000;2022-11-20T15:05:02;9.10;75.50
13093;DHT22;6612;49.568;11.000;2022-11-20T15:07:32;9.00;75.30
13093;DHT22;6612;49.568;11.000;2022-11-20T15:10:05;9.00;75.30
13093;DHT22;6612;49.568;11.000;2022-11-20T15:12:37;9.00;75.20
13093;DHT22;6612;49.568;11.000;2022-11-20T15:15:08;8.90;75.00
13093;DHT22;6612;49.568;11.000;2022-11-20T15:17:40;8.90;75.10
13093;DHT22;6612;49.568;11.000;2022-11-20T15:20:12;8.90;75.10
13093;DHT22;6612;49.568;11.000;2022-11-20T15:22:41;8.90;75.10
13093;DHT22;6612;49.568;11.000;2022-11-20T15:25:19;8.90;75.30
13093;DHT22;6612;49.568;11.000;2022-11-20T15:28:18;8.90;75.00
13093;DHT22;6612;49.568;11.000;2022-11-20T15:30:46;8.90;74.80
13093;DHT22;6612;49.568;11.000;2022-11-20T15:33:16;8.90;75.10
13093;DHT22;6612;49.568;11.000;2022-11-20T15:35:44;8.80;74.80
13093;DHT22;6612;49.568;11.000;2022-11-20T15:38:12;8.80;74.30
13093;DHT22;6612;49.568;11.000;2022-11-20T15:40:40;8.80;74.20
13093;DHT22;6612;49.568;11.000;2022-11-20T15:43:08;8.80;74.90
13093;DHT22;6612;49.568;11.000;2022-11-20T15:45:38;8.70;74.20
13093;DHT22;6612;49.568;11.000;2022-11-20T15:48:11;8.70;74.30
13093;DHT22;6612;49.568;11.000;2022-11-20T15:50:47;8.70;74.30
13093;DHT22;6612;49.568;11.000;2022-11-20T15:53:18;8.60;74.00
13093;DHT22;6612;49.568;11.000;2022-11-20T15:55:46;8.70;74.00
13093;DHT22;6612;49.568;11.000;2022-11-20T15:58:15;8.60;74.30
13093;DHT22;6612;49.568;11.000;2022-11-20T16:00:43;8.60;74.50
13093;DHT22;6612;49.568;11.000;2022-11-20T16:03:12;8.50;74.70
13093;DHT22;6612;49.568;11.000;2022-11-20T16:05:39;8.60;74.90
13093;DHT22;6612;49.568;11.000;2022-11-20T16:08:07;8.60;74.90
13093;DHT22;6612;49.568;11.000;2022-11-20T17:45:10;7.50;71.10
13093;DHT22;6612;49.568;11.000;2022-11-20T18:31:59;7.10;73.60
13093;DHT22;6612;49.568;11.000;2022-11-20T18:34:27;7.00;74.30